Overview Statistics Trail Chart Weather Telemetry Raw packets
 

This is the latest recevied weather packets stored in our database for station/object OK1FET-14. If no packets are shown the sender has not sent any weather packets the latest 10 day(s).

<< 1 2 3 4 >>
Time Temp. Humidity Pressure Rain* Wind** Luminosity Snow
1788696467 21.67° C 38% 1028.9 hPa - - - -
1788696467 21.67° C 38% 1028.9 hPa - - - -
1788696467 21.67° C 38% 1028.9 hPa - - - -
1788696186 21.67° C 40% 1028.9 hPa - - - -
1788696185 21.67° C 40% 1028.9 hPa - - - -
1788696185 21.67° C 40% 1028.9 hPa - - - -
1788695904 20.56° C 41% 1028.9 hPa - - - -
1788695904 20.56° C 41% 1028.9 hPa - - - -
1788695904 20.56° C 41% 1028.9 hPa - - - -
1788695623 20° C 42% 1028.8 hPa - - - -
1788695623 20° C 42% 1028.8 hPa - - - -
1788695623 20° C 42% 1028.8 hPa - - - -
1788695342 21.11° C 40% 1028.9 hPa - - - -
1788695342 21.11° C 40% 1028.9 hPa - - - -
1788695342 21.11° C 40% 1028.9 hPa - - - -
1788695061 22.78° C 39% 1028.9 hPa - - - -
1788695061 22.78° C 39% 1028.9 hPa - - - -
1788695061 22.78° C 39% 1028.9 hPa - - - -
1788694779 22.22° C 39% 1028.9 hPa - - - -
1788694779 22.22° C 39% 1028.9 hPa - - - -
1788694779 22.22° C 39% 1028.9 hPa - - - -
1788694498 22.78° C 38% 1029.1 hPa - - - -
1788694498 22.78° C 38% 1029.1 hPa - - - -
1788694498 22.78° C 38% 1029.1 hPa - - - -
1788694230 22.22° C 41% 1029 hPa - - - -

* Rain since midnight (hover to see other rain measurements)
** Current wind speed in m/s (hover to see current wind gust speed)